createdAt,value
2023-05-06T00:04:03.165Z,101095.41
2023-05-06T00:09:04.991Z,101091.19
2023-05-06T00:14:06.489Z,101096.97
2023-05-06T00:19:07.837Z,101104.16
2023-05-06T00:24:09.330Z,101094.94
2023-05-06T00:29:10.702Z,101086.06
2023-05-06T00:34:12.186Z,101079.97
2023-05-06T00:39:14.027Z,101084.38
2023-05-06T00:44:15.662Z,101085.16
2023-05-06T00:49:17.098Z,101075.50
2023-05-06T00:54:18.627Z,101082.94
2023-05-06T00:59:20.006Z,101080.75
2023-05-06T01:04:23.831Z,101076.19
2023-05-06T01:09:31.752Z,101072.38
2023-05-06T01:14:36.170Z,101076.28
2023-05-06T01:19:42.008Z,101074.22
2023-05-06T01:24:44.503Z,101080.53
2023-05-06T01:29:47.056Z,101081.28
2023-05-06T01:34:48.376Z,101072.28
2023-05-06T01:39:50.002Z,101078.34
2023-05-06T01:44:52.114Z,101071.25
2023-05-06T01:49:54.037Z,101068.06
2023-05-06T01:54:55.449Z,101082.47
2023-05-06T01:59:56.778Z,101080.00
2023-05-06T02:04:58.709Z,101072.28
2023-05-06T02:10:00.206Z,101075.56
2023-05-06T02:15:02.165Z,101077.34
2023-05-06T02:20:03.831Z,101076.81
2023-05-06T02:25:05.734Z,101076.34
2023-05-06T02:30:07.508Z,101075.97
2023-05-06T02:35:09.335Z,101077.84
2023-05-06T02:40:11.051Z,101079.66
2023-05-06T02:45:12.552Z,101072.75
2023-05-06T02:50:13.953Z,101073.41
2023-05-06T02:55:15.584Z,101071.31
2023-05-06T03:00:17.273Z,101079.84
2023-05-06T03:05:18.777Z,101076.88
2023-05-06T03:10:20.130Z,101079.06
2023-05-06T03:15:21.621Z,101078.19
2023-05-06T03:20:23.163Z,101082.06
2023-05-06T03:25:28.552Z,101071.84
2023-05-06T03:30:31.117Z,101071.84
2023-05-06T03:35:35.654Z,101071.84
2023-05-06T03:40:37.670Z,101072.78
2023-05-06T03:45:39.162Z,101066.13
2023-05-06T03:50:40.890Z,101069.47
2023-05-06T03:55:42.326Z,101069.47
2023-05-06T04:00:45.710Z,101070.00
2023-05-06T04:05:48.958Z,101070.00
2023-05-06T04:10:53.195Z,101077.50
2023-05-06T04:16:02.864Z,101077.50
2023-05-06T04:21:18.209Z,101077.50
2023-05-06T04:26:25.882Z,101085.09
2023-05-06T04:31:28.324Z,101085.56
2023-05-06T04:36:31.733Z,101085.56
2023-05-06T04:41:55.566Z,101104.81
2023-05-06T04:47:04.175Z,101107.34
2023-05-06T04:52:05.646Z,101108.69
2023-05-06T04:57:08.008Z,101108.69
2023-05-06T05:02:11.650Z,101108.69
2023-05-06T05:07:14.997Z,101119.69
2023-05-06T05:12:16.508Z,101120.34
2023-05-06T05:17:21.554Z,101120.34
2023-05-06T05:22:24.630Z,101127.28
2023-05-06T05:27:26.047Z,101125.47
2023-05-06T05:32:29.400Z,101129.00
2023-05-06T05:37:31.132Z,101129.97
2023-05-06T05:42:33.688Z,101138.81
2023-05-06T05:47:39.397Z,101137.31
2023-05-06T05:52:41.553Z,101144.38
2023-05-06T05:57:43.014Z,101143.59
2023-05-06T06:02:45.358Z,101141.25
2023-05-06T06:07:49.489Z,101142.81
2023-05-06T06:12:51.027Z,101135.19
2023-05-06T06:17:56.047Z,101137.53
2023-05-06T06:23:01.126Z,101137.28
2023-05-06T06:28:04.049Z,101148.81
2023-05-06T06:33:05.707Z,101145.75
2023-05-06T06:38:07.077Z,101147.16
2023-05-06T06:43:08.399Z,101143.63
2023-05-06T06:48:29.156Z,101158.59
2023-05-06T06:53:30.837Z,101152.09
2023-05-06T06:58:32.945Z,101148.00
2023-05-06T07:03:34.419Z,101152.03
2023-05-06T07:08:35.758Z,101149.25
2023-05-06T07:13:37.099Z,101154.66
2023-05-06T07:18:38.392Z,101153.97
2023-05-06T07:23:39.709Z,101160.75
2023-05-06T07:28:41.125Z,101163.81
2023-05-06T07:33:42.534Z,101160.03
2023-05-06T07:38:43.894Z,101159.47
2023-05-06T07:43:45.228Z,101162.34
2023-05-06T07:48:46.598Z,101171.31
2023-05-06T07:53:48.124Z,101171.19
2023-05-06T07:58:49.545Z,101169.09
2023-05-06T08:03:51.071Z,101173.31
2023-05-06T08:08:52.616Z,101171.22
2023-05-06T08:13:54.003Z,101182.22
2023-05-06T08:18:55.388Z,101177.16
2023-05-06T08:23:56.727Z,101179.84
2023-05-06T08:28:59.356Z,101176.34
2023-05-06T08:34:00.836Z,101183.72
2023-05-06T08:39:02.137Z,101180.41
2023-05-06T08:44:05.248Z,101178.00
2023-05-06T08:49:06.782Z,101168.91
2023-05-06T08:54:08.431Z,101172.19
2023-05-06T08:59:10.530Z,101166.38
2023-05-06T09:04:12.445Z,101157.56
2023-05-06T09:09:14.842Z,101159.75
2023-05-06T09:14:17.407Z,101168.78
2023-05-06T09:19:19.589Z,101164.06
2023-05-06T09:24:21.114Z,101156.22
2023-05-06T09:29:22.497Z,101151.38
2023-05-06T09:34:24.598Z,101152.13
2023-05-06T09:39:26.946Z,101142.41
2023-05-06T09:44:28.881Z,101143.47
2023-05-06T09:49:30.241Z,101137.75
2023-05-06T09:54:32.020Z,101136.88
2023-05-06T09:59:33.946Z,101136.91
2023-05-06T10:04:38.293Z,101129.06
2023-05-06T10:09:40.680Z,101131.34
2023-05-06T10:14:42.014Z,101126.50
2023-05-06T10:19:44.815Z,101126.72
2023-05-06T10:24:51.829Z,101123.56
2023-05-06T10:29:54.432Z,101112.44
2023-05-06T10:34:56.633Z,101119.25
2023-05-06T10:39:58.391Z,101123.22
2023-05-06T10:45:00.998Z,101103.91
2023-05-06T10:50:31.585Z,101098.00
2023-05-06T10:55:36.319Z,101095.34
2023-05-06T11:00:41.227Z,101101.53
2023-05-06T11:05:49.579Z,101096.31
2023-05-06T11:10:51.623Z,101096.13
2023-05-06T11:15:53.673Z,101073.72
2023-05-06T11:21:01.319Z,101073.53
2023-05-06T11:26:06.905Z,101082.53
2023-05-06T11:31:09.451Z,101075.31
2023-05-06T11:36:14.404Z,101071.91
2023-05-06T11:41:16.192Z,101065.19
2023-05-06T11:46:21.108Z,101059.22
2023-05-06T11:51:23.161Z,101055.13
2023-05-06T11:56:24.857Z,101057.69
2023-05-06T12:01:26.177Z,101054.63
2023-05-06T12:06:34.150Z,101045.50
2023-05-06T12:11:36.016Z,101048.44
2023-05-06T12:16:37.723Z,101054.59
2023-05-06T12:21:39.193Z,101054.50
2023-05-06T12:26:47.411Z,101057.22
2023-05-06T12:31:49.160Z,101049.09
2023-05-06T12:36:51.056Z,101052.47
2023-05-06T12:41:54.024Z,101044.22
2023-05-06T12:46:55.321Z,101044.22
2023-05-06T12:52:09.815Z,101044.41
2023-05-06T12:57:11.329Z,101047.03
2023-05-06T13:02:13.132Z,101051.44
2023-05-06T13:07:14.598Z,101045.19
2023-05-06T13:12:16.783Z,101048.75
2023-05-06T13:17:18.245Z,101044.41
2023-05-06T13:22:19.956Z,101042.50
2023-05-06T13:27:21.754Z,101048.28
2023-05-06T13:32:23.128Z,101046.34
2023-05-06T13:37:24.509Z,101043.69
2023-05-06T13:42:25.827Z,101041.00
2023-05-06T13:47:27.298Z,101038.91
2023-05-06T13:52:28.709Z,101046.19
2023-05-06T13:57:30.182Z,101043.94
2023-05-06T14:02:31.546Z,101039.91
2023-05-06T14:07:32.932Z,101040.09
2023-05-06T14:12:34.277Z,101042.91
2023-05-06T14:17:36.126Z,101065.34
2023-05-06T14:22:39.864Z,101072.88
2023-05-06T14:27:41.297Z,101062.22
2023-05-06T14:32:43.542Z,101076.06
2023-05-06T14:37:44.984Z,101078.41
2023-05-06T14:42:46.560Z,101079.13
2023-05-06T14:47:47.987Z,101079.75
2023-05-06T14:52:49.689Z,101073.91
2023-05-06T14:57:51.580Z,101070.59
2023-05-06T15:02:53.019Z,101068.53
2023-05-06T15:07:54.383Z,101081.22
2023-05-06T15:12:55.731Z,101078.03
2023-05-06T15:17:57.108Z,101079.22
2023-05-06T15:22:59.111Z,101078.00
2023-05-06T15:28:00.540Z,101071.72
2023-05-06T15:33:02.624Z,101070.75
2023-05-06T15:38:04.085Z,101073.38
2023-05-06T15:43:05.631Z,101076.59
2023-05-06T15:48:07.254Z,101059.97
2023-05-06T15:53:08.638Z,101068.66
2023-05-06T15:58:10.008Z,101074.75
2023-05-06T16:03:12.418Z,101071.59
2023-05-06T16:08:14.157Z,101056.00
2023-05-06T16:13:15.599Z,101051.59
2023-05-06T16:18:17.004Z,101040.47
2023-05-06T16:23:18.908Z,101038.28
2023-05-06T16:28:20.233Z,101035.88
2023-05-06T16:33:21.570Z,101041.06
2023-05-06T16:38:22.912Z,101046.44
2023-05-06T16:43:24.312Z,101043.31
2023-05-06T16:48:25.792Z,101047.13
2023-05-06T16:53:27.694Z,101050.91
2023-05-06T16:58:29.913Z,101046.19
2023-05-06T17:03:31.317Z,101052.34
2023-05-06T17:08:36.025Z,101045.78
2023-05-06T17:13:38.179Z,101040.81
2023-05-06T17:18:39.523Z,101051.84
2023-05-06T17:23:40.985Z,101050.16
2023-05-06T17:28:42.543Z,101057.00
2023-05-06T17:33:44.356Z,101056.03
2023-05-06T17:38:45.974Z,101055.06
2023-05-06T17:43:47.476Z,101051.59
2023-05-06T17:48:49.065Z,101049.28
2023-05-06T17:53:50.506Z,101054.09
2023-05-06T17:58:51.882Z,101053.31
2023-05-06T18:03:53.305Z,101046.63
2023-05-06T18:08:54.817Z,101051.59
2023-05-06T18:13:56.180Z,101055.31
2023-05-06T18:18:57.578Z,101052.22
2023-05-06T18:24:10.364Z,101063.06
2023-05-06T18:29:17.058Z,101057.41
2023-05-06T18:34:18.437Z,101054.09
2023-05-06T18:39:22.767Z,101045.25
2023-05-06T18:44:24.123Z,101045.88
2023-05-06T18:49:27.372Z,101049.38
2023-05-06T18:54:28.752Z,101042.41
2023-05-06T18:59:30.523Z,101039.09
2023-05-06T19:04:32.063Z,101045.09
2023-05-06T19:09:36.774Z,101036.44
2023-05-06T19:14:38.173Z,101036.41
2023-05-06T19:19:40.577Z,101040.25
2023-05-06T19:24:41.943Z,101039.09
2023-05-06T19:29:43.427Z,101032.66
2023-05-06T19:34:44.756Z,101032.47
2023-05-06T19:39:47.468Z,101032.75
2023-05-06T19:44:49.020Z,101034.94
2023-05-06T19:49:51.173Z,101037.38
2023-05-06T19:54:54.270Z,101035.50
2023-05-06T19:59:56.601Z,101046.91
2023-05-06T20:04:58.005Z,101045.63
2023-05-06T20:09:59.410Z,101049.59
2023-05-06T20:15:00.855Z,101047.84
2023-05-06T20:20:08.995Z,101046.50
2023-05-06T20:25:11.500Z,101039.78
2023-05-06T20:30:13.261Z,101046.72
2023-05-06T20:35:14.913Z,101043.47
2023-05-06T20:40:16.311Z,101051.53
2023-05-06T20:45:17.651Z,101063.72
2023-05-06T20:50:19.004Z,101062.47
2023-05-06T20:55:23.033Z,101070.97
2023-05-06T21:00:24.511Z,101067.50
2023-05-06T21:05:26.336Z,101061.66
2023-05-06T21:10:27.973Z,101065.16
2023-05-06T21:15:29.293Z,101067.00
2023-05-06T21:20:30.718Z,101063.22
2023-05-06T21:25:32.054Z,101062.63
2023-05-06T21:30:34.921Z,101062.25
2023-05-06T21:35:36.801Z,101057.69
2023-05-06T21:40:38.205Z,101055.16
2023-05-06T21:45:39.538Z,101054.22
2023-05-06T21:50:40.913Z,101047.19
2023-05-06T21:55:42.213Z,101051.38
2023-05-06T22:00:43.564Z,101049.50
2023-05-06T22:05:44.897Z,101059.25
2023-05-06T22:10:46.208Z,101063.34
2023-05-06T22:15:47.577Z,101057.56
2023-05-06T22:20:52.474Z,101062.00
2023-05-06T22:25:53.825Z,101062.56
2023-05-06T22:30:55.149Z,101064.31
2023-05-06T22:35:56.589Z,101062.72
2023-05-06T22:40:57.913Z,101067.19
2023-05-06T22:45:59.259Z,101063.72
2023-05-06T22:51:03.175Z,101058.00
2023-05-06T22:56:04.748Z,101052.53
2023-05-06T23:01:07.268Z,101042.00
2023-05-06T23:06:08.690Z,101051.41
2023-05-06T23:11:10.010Z,101052.75
2023-05-06T23:16:11.554Z,101052.09
2023-05-06T23:21:15.017Z,101052.00
2023-05-06T23:26:16.460Z,101056.34
2023-05-06T23:31:17.882Z,101057.78
2023-05-06T23:36:19.220Z,101052.41
2023-05-06T23:41:21.232Z,101053.72
2023-05-06T23:46:22.630Z,101058.56
2023-05-06T23:51:24.043Z,101056.56
2023-05-06T23:56:25.364Z,101049.81
